sensor_id;sensor_type;location;lat;lon;timestamp;pressure;altitude;pressure_sealevel;temperature;humidity
75521;BME280;64102;48.628;9.002;2023-04-01T00:01:04;94801.59;;;6.46;94.57
75521;BME280;64102;48.628;9.002;2023-04-01T00:03:30;94805.69;;;6.39;95.31
75521;BME280;64102;48.628;9.002;2023-04-01T00:05:57;94806.78;;;6.37;95.32
75521;BME280;64102;48.628;9.002;2023-04-01T00:08:23;94800.84;;;6.36;95.13
75521;BME280;64102;48.628;9.002;2023-04-01T00:10:50;94798.81;;;6.40;93.95
75521;BME280;64102;48.628;9.002;2023-04-01T00:13:16;94791.94;;;6.40;93.54
75521;BME280;64102;48.628;9.002;2023-04-01T00:15:42;94787.91;;;6.38;93.73
75521;BME280;64102;48.628;9.002;2023-04-01T00:18:07;94787.75;;;6.39;94.31
75521;BME280;64102;48.628;9.002;2023-04-01T00:20:34;94792.34;;;6.36;94.18
75521;BME280;64102;48.628;9.002;2023-04-01T00:22:59;94785.63;;;6.35;94.22
75521;BME280;64102;48.628;9.002;2023-04-01T00:25:25;94799.41;;;6.34;94.77
75521;BME280;64102;48.628;9.002;2023-04-01T00:27:51;94790.75;;;6.35;94.43
75521;BME280;64102;48.628;9.002;2023-04-01T00:30:17;94795.44;;;6.39;94.36
75521;BME280;64102;48.628;9.002;2023-04-01T00:32:43;94786.28;;;6.37;94.12
75521;BME280;64102;48.628;9.002;2023-04-01T00:35:08;94785.19;;;6.39;93.37
75521;BME280;64102;48.628;9.002;2023-04-01T00:37:35;94784.09;;;6.42;93.31
75521;BME280;64102;48.628;9.002;2023-04-01T00:40:03;94778.47;;;6.38;94.06
75521;BME280;64102;48.628;9.002;2023-04-01T00:42:29;94786.81;;;6.40;94.07
75521;BME280;64102;48.628;9.002;2023-04-01T00:44:55;94782.34;;;6.42;93.98
75521;BME280;64102;48.628;9.002;2023-04-01T00:47:21;94790.03;;;6.42;93.54
75521;BME280;64102;48.628;9.002;2023-04-01T00:49:49;94780.59;;;6.43;93.90
75521;BME280;64102;48.628;9.002;2023-04-01T00:52:19;94775.47;;;6.43;93.40
75521;BME280;64102;48.628;9.002;2023-04-01T00:54:50;94780.06;;;6.39;93.62
75521;BME280;64102;48.628;9.002;2023-04-01T00:57:37;94776.91;;;6.27;94.78
75521;BME280;64102;48.628;9.002;2023-04-01T01:00:06;94780.72;;;6.23;95.00
75521;BME280;64102;48.628;9.002;2023-04-01T01:02:34;94782.03;;;6.27;93.96
75521;BME280;64102;48.628;9.002;2023-04-01T01:05:00;94792.50;;;6.34;94.24
75521;BME280;64102;48.628;9.002;2023-04-01T01:10:38;94799.09;;;6.37;94.12
75521;BME280;64102;48.628;9.002;2023-04-01T01:13:29;94792.34;;;6.36;94.50
75521;BME280;64102;48.628;9.002;2023-04-01T01:16:20;94794.63;;;6.39;93.52
75521;BME280;64102;48.628;9.002;2023-04-01T01:32:38;94796.16;;;6.32;94.14
75521;BME280;64102;48.628;9.002;2023-04-01T01:37:38;94797.78;;;6.33;93.69
75521;BME280;64102;48.628;9.002;2023-04-01T01:40:07;94797.91;;;6.31;94.55
75521;BME280;64102;48.628;9.002;2023-04-01T01:42:38;94790.66;;;6.26;94.54
75521;BME280;64102;48.628;9.002;2023-04-01T01:45:07;94786.78;;;6.22;94.59
75521;BME280;64102;48.628;9.002;2023-04-01T01:47:34;94793.13;;;6.18;94.63
75521;BME280;64102;48.628;9.002;2023-04-01T01:50:01;94789.13;;;6.16;94.48
75521;BME280;64102;48.628;9.002;2023-04-01T01:52:28;94784.00;;;6.16;93.59
75521;BME280;64102;48.628;9.002;2023-04-01T01:54:56;94785.59;;;6.17;93.62
75521;BME280;64102;48.628;9.002;2023-04-01T01:57:33;94779.00;;;6.14;93.41
75521;BME280;64102;48.628;9.002;2023-04-01T02:00:08;94781.19;;;6.09;93.64
75521;BME280;64102;48.628;9.002;2023-04-01T02:02:48;94779.56;;;6.08;93.21
75521;BME280;64102;48.628;9.002;2023-04-01T02:05:23;94779.44;;;6.10;92.61
75521;BME280;64102;48.628;9.002;2023-04-01T02:07:55;94776.88;;;6.10;92.89
75521;BME280;64102;48.628;9.002;2023-04-01T02:10:25;94780.09;;;6.12;91.74
75521;BME280;64102;48.628;9.002;2023-04-01T02:12:53;94784.69;;;6.08;92.26
75521;BME280;64102;48.628;9.002;2023-04-01T02:15:25;94781.75;;;6.03;92.36
75521;BME280;64102;48.628;9.002;2023-04-01T02:17:51;94788.13;;;5.99;92.45
75521;BME280;64102;48.628;9.002;2023-04-01T02:20:22;94781.91;;;6.02;92.16
75521;BME280;64102;48.628;9.002;2023-04-01T02:22:50;94795.38;;;6.04;92.29
75521;BME280;64102;48.628;9.002;2023-04-01T02:25:36;94785.94;;;6.04;91.80
75521;BME280;64102;48.628;9.002;2023-04-01T02:28:05;94783.50;;;6.03;91.74
75521;BME280;64102;48.628;9.002;2023-04-01T02:30:34;94780.53;;;6.07;91.04
75521;BME280;64102;48.628;9.002;2023-04-01T02:33:00;94794.81;;;6.10;90.83
75521;BME280;64102;48.628;9.002;2023-04-01T02:35:26;94787.25;;;6.08;91.24
75521;BME280;64102;48.628;9.002;2023-04-01T02:37:55;94785.81;;;6.06;91.10
75521;BME280;64102;48.628;9.002;2023-04-01T02:40:21;94791.88;;;6.05;90.21
75521;BME280;64102;48.628;9.002;2023-04-01T02:42:46;94789.88;;;5.99;91.47
75521;BME280;64102;48.628;9.002;2023-04-01T02:45:13;94785.97;;;5.95;91.69
75521;BME280;64102;48.628;9.002;2023-04-01T02:47:38;94789.50;;;5.94;91.75
75521;BME280;64102;48.628;9.002;2023-04-01T02:50:05;94782.38;;;5.88;92.33
75521;BME280;64102;48.628;9.002;2023-04-01T02:52:31;94784.66;;;5.91;91.49
75521;BME280;64102;48.628;9.002;2023-04-01T02:54:57;94780.63;;;5.88;92.02
75521;BME280;64102;48.628;9.002;2023-04-01T02:57:23;94779.81;;;5.88;91.18
75521;BME280;64102;48.628;9.002;2023-04-01T02:59:48;94788.03;;;5.81;92.32
75521;BME280;64102;48.628;9.002;2023-04-01T03:02:14;94780.94;;;5.75;92.84
75521;BME280;64102;48.628;9.002;2023-04-01T03:04:41;94789.28;;;5.68;92.68
75521;BME280;64102;48.628;9.002;2023-04-01T03:07:06;94792.66;;;5.68;92.14
75521;BME280;64102;48.628;9.002;2023-04-01T03:09:32;94790.41;;;5.65;92.43
75521;BME280;64102;48.628;9.002;2023-04-01T03:11:57;94790.41;;;5.65;93.34
75521;BME280;64102;48.628;9.002;2023-04-01T03:14:22;94790.53;;;5.64;93.30
75521;BME280;64102;48.628;9.002;2023-04-01T03:16:48;94784.09;;;5.60;93.03
75521;BME280;64102;48.628;9.002;2023-04-01T03:19:13;94787.56;;;5.59;92.91
75521;BME280;64102;48.628;9.002;2023-04-01T03:21:38;94786.63;;;5.60;92.91
75521;BME280;64102;48.628;9.002;2023-04-01T03:24:04;94784.75;;;5.62;92.83
75521;BME280;64102;48.628;9.002;2023-04-01T03:26:30;94782.47;;;5.59;91.82
75521;BME280;64102;48.628;9.002;2023-04-01T03:28:55;94785.31;;;5.56;91.86
75521;BME280;64102;48.628;9.002;2023-04-01T03:31:21;94782.63;;;5.57;91.96
75521;BME280;64102;48.628;9.002;2023-04-01T03:33:47;94785.56;;;5.62;90.91
75521;BME280;64102;48.628;9.002;2023-04-01T03:36:13;94784.50;;;5.55;91.65
75521;BME280;64102;48.628;9.002;2023-04-01T03:38:40;94788.16;;;5.53;91.18
75521;BME280;64102;48.628;9.002;2023-04-01T03:41:06;94786.66;;;5.50;90.92
75521;BME280;64102;48.628;9.002;2023-04-01T03:43:32;94788.56;;;5.48;90.86
75521;BME280;64102;48.628;9.002;2023-04-01T03:45:57;94789.09;;;5.52;91.08
75521;BME280;64102;48.628;9.002;2023-04-01T03:48:24;94795.03;;;5.52;90.70
75521;BME280;64102;48.628;9.002;2023-04-01T03:50:50;94794.59;;;5.57;90.98
75521;BME280;64102;48.628;9.002;2023-04-01T03:53:16;94788.81;;;5.55;90.36
75521;BME280;64102;48.628;9.002;2023-04-01T03:55:41;94789.09;;;5.52;90.46
75521;BME280;64102;48.628;9.002;2023-04-01T03:58:07;94786.00;;;5.48;91.19
75521;BME280;64102;48.628;9.002;2023-04-01T04:00:33;94777.78;;;5.45;90.91
75521;BME280;64102;48.628;9.002;2023-04-01T04:02:58;94769.88;;;5.38;91.92
75521;BME280;64102;48.628;9.002;2023-04-01T04:05:24;94778.66;;;5.35;91.35
75521;BME280;64102;48.628;9.002;2023-04-01T04:07:51;94755.38;;;5.29;91.84
75521;BME280;64102;48.628;9.002;2023-04-01T04:10:16;94761.72;;;5.25;91.79
75521;BME280;64102;48.628;9.002;2023-04-01T04:12:42;94763.59;;;5.23;92.28
75521;BME280;64102;48.628;9.002;2023-04-01T04:15:08;94757.94;;;5.19;92.96
75521;BME280;64102;48.628;9.002;2023-04-01T04:17:34;94750.16;;;5.11;93.55
75521;BME280;64102;48.628;9.002;2023-04-01T04:19:59;94762.00;;;5.12;93.15
75521;BME280;64102;48.628;9.002;2023-04-01T04:22:25;94754.22;;;5.04;93.78
75521;BME280;64102;48.628;9.002;2023-04-01T04:24:50;94749.78;;;5.06;94.38
75521;BME280;64102;48.628;9.002;2023-04-01T04:27:16;94763.38;;;5.07;94.57
75521;BME280;64102;48.628;9.002;2023-04-01T04:29:41;94763.88;;;5.10;94.97
75521;BME280;64102;48.628;9.002;2023-04-01T04:32:06;94759.03;;;5.17;94.18
75521;BME280;64102;48.628;9.002;2023-04-01T04:34:32;94763.88;;;5.20;94.29
75521;BME280;64102;48.628;9.002;2023-04-01T04:36:57;94748.41;;;5.21;94.45
75521;BME280;64102;48.628;9.002;2023-04-01T04:39:23;94755.75;;;5.34;93.92
75521;BME280;64102;48.628;9.002;2023-04-01T04:41:48;94770.28;;;5.43;93.13
75521;BME280;64102;48.628;9.002;2023-04-01T04:44:14;94765.94;;;5.53;92.12
75521;BME280;64102;48.628;9.002;2023-04-01T04:46:39;94758.06;;;5.64;92.36
75521;BME280;64102;48.628;9.002;2023-04-01T04:49:05;94768.41;;;5.72;91.12
75521;BME280;64102;48.628;9.002;2023-04-01T04:51:31;94768.66;;;5.79;91.24
75521;BME280;64102;48.628;9.002;2023-04-01T04:53:59;94763.13;;;5.83;91.33
75521;BME280;64102;48.628;9.002;2023-04-01T04:56:25;94767.28;;;5.84;92.06
75521;BME280;64102;48.628;9.002;2023-04-01T04:58:51;94764.72;;;5.84;91.49
75521;BME280;64102;48.628;9.002;2023-04-01T05:01:17;94767.13;;;5.86;92.47
75521;BME280;64102;48.628;9.002;2023-04-01T05:03:43;94766.91;;;5.89;91.23
75521;BME280;64102;48.628;9.002;2023-04-01T05:06:11;94763.91;;;5.94;91.18
75521;BME280;64102;48.628;9.002;2023-04-01T05:08:37;94779.91;;;5.96;90.90
75521;BME280;64102;48.628;9.002;2023-04-01T05:11:09;94764.13;;;6.00;89.79
75521;BME280;64102;48.628;9.002;2023-04-01T05:13:36;94766.78;;;6.08;89.08
75521;BME280;64102;48.628;9.002;2023-04-01T05:16:02;94749.22;;;6.13;88.94
75521;BME280;64102;48.628;9.002;2023-04-01T05:18:27;94757.72;;;6.14;88.90
75521;BME280;64102;48.628;9.002;2023-04-01T05:20:54;94746.38;;;6.16;88.12
75521;BME280;64102;48.628;9.002;2023-04-01T05:23:21;94740.03;;;6.20;87.88
75521;BME280;64102;48.628;9.002;2023-04-01T05:25:48;94743.25;;;6.22;88.23
75521;BME280;64102;48.628;9.002;2023-04-01T05:28:14;94751.59;;;6.24;87.90
75521;BME280;64102;48.628;9.002;2023-04-01T05:30:43;94744.13;;;6.31;86.99
75521;BME280;64102;48.628;9.002;2023-04-01T05:33:09;94751.00;;;6.48;86.77
75521;BME280;64102;48.628;9.002;2023-04-01T05:35:35;94743.19;;;6.50;85.41
75521;BME280;64102;48.628;9.002;2023-04-01T05:38:01;94747.78;;;6.64;85.41
75521;BME280;64102;48.628;9.002;2023-04-01T05:40:27;94737.13;;;6.51;85.02
75521;BME280;64102;48.628;9.002;2023-04-01T05:42:53;94743.03;;;6.51;85.52
75521;BME280;64102;48.628;9.002;2023-04-01T05:45:18;94747.94;;;6.45;85.19
75521;BME280;64102;48.628;9.002;2023-04-01T05:47:43;94740.13;;;6.46;85.41
75521;BME280;64102;48.628;9.002;2023-04-01T05:50:09;94706.28;;;6.60;84.50
75521;BME280;64102;48.628;9.002;2023-04-01T05:52:36;94730.34;;;6.67;83.84
75521;BME280;64102;48.628;9.002;2023-04-01T05:55:02;94735.94;;;6.63;83.61
75521;BME280;64102;48.628;9.002;2023-04-01T05:57:27;94737.53;;;6.64;83.95
75521;BME280;64102;48.628;9.002;2023-04-01T05:59:53;94732.97;;;6.75;83.65
75521;BME280;64102;48.628;9.002;2023-04-01T06:02:18;94738.63;;;7.23;82.61
75521;BME280;64102;48.628;9.002;2023-04-01T06:04:44;94738.03;;;7.37;80.65
75521;BME280;64102;48.628;9.002;2023-04-01T06:07:14;94739.22;;;7.50;79.95
75521;BME280;64102;48.628;9.002;2023-04-01T06:09:41;94735.03;;;7.15;80.85
75521;BME280;64102;48.628;9.002;2023-04-01T06:22:37;94733.38;;;7.06;81.26
75521;BME280;64102;48.628;9.002;2023-04-01T06:38:52;94731.63;;;6.89;83.31
75521;BME280;64102;48.628;9.002;2023-04-01T06:46:34;94723.81;;;6.91;84.08
75521;BME280;64102;48.628;9.002;2023-04-01T06:49:17;94713.69;;;6.89;84.49
75521;BME280;64102;48.628;9.002;2023-04-01T06:54:36;94718.69;;;6.91;83.72
75521;BME280;64102;48.628;9.002;2023-04-01T06:57:31;94720.19;;;7.01;84.42
75521;BME280;64102;48.628;9.002;2023-04-01T07:00:00;94717.84;;;7.08;84.60
75521;BME280;64102;48.628;9.002;2023-04-01T07:04:53;94726.78;;;7.04;84.17
75521;BME280;64102;48.628;9.002;2023-04-01T07:07:31;94724.50;;;7.01;84.17
75521;BME280;64102;48.628;9.002;2023-04-01T07:09:59;94729.94;;;6.98;83.78
75521;BME280;64102;48.628;9.002;2023-04-01T07:12:37;94731.59;;;7.07;84.90
75521;BME280;64102;48.628;9.002;2023-04-01T07:15:39;94732.78;;;7.12;84.37
75521;BME280;64102;48.628;9.002;2023-04-01T07:18:13;94721.56;;;7.13;84.17
75521;BME280;64102;48.628;9.002;2023-04-01T07:20:41;94727.34;;;7.15;84.62
75521;BME280;64102;48.628;9.002;2023-04-01T07:23:32;94731.06;;;7.21;83.72
75521;BME280;64102;48.628;9.002;2023-04-01T07:26:04;94736.69;;;7.25;84.78
75521;BME280;64102;48.628;9.002;2023-04-01T07:28:32;94733.47;;;7.23;84.36
75521;BME280;64102;48.628;9.002;2023-04-01T07:36:45;94717.47;;;7.29;83.94
75521;BME280;64102;48.628;9.002;2023-04-01T07:39:16;94728.88;;;7.34;84.11
75521;BME280;64102;48.628;9.002;2023-04-01T07:41:51;94729.41;;;7.46;84.26
75521;BME280;64102;48.628;9.002;2023-04-01T07:58:09;94743.75;;;7.56;83.43
75521;BME280;64102;48.628;9.002;2023-04-01T08:07:13;94755.91;;;7.46;84.86
75521;BME280;64102;48.628;9.002;2023-04-01T08:09:29;94757.00;;;7.44;85.73
75521;BME280;64102;48.628;9.002;2023-04-01T08:20:00;94752.84;;;7.43;86.66
75521;BME280;64102;48.628;9.002;2023-04-01T08:22:33;94756.06;;;7.45;85.63
75521;BME280;64102;48.628;9.002;2023-04-01T08:25:04;94763.41;;;7.40;85.63
75521;BME280;64102;48.628;9.002;2023-04-01T08:27:47;94756.31;;;7.34;85.91
75521;BME280;64102;48.628;9.002;2023-04-01T08:30:24;94756.13;;;7.27;87.13
75521;BME280;64102;48.628;9.002;2023-04-01T08:33:15;94749.81;;;7.22;86.91
75521;BME280;64102;48.628;9.002;2023-04-01T08:35:50;94763.56;;;7.12;87.94
75521;BME280;64102;48.628;9.002;2023-04-01T08:38:21;94769.13;;;7.08;88.15
75521;BME280;64102;48.628;9.002;2023-04-01T08:40:59;94756.31;;;7.08;88.73
75521;BME280;64102;48.628;9.002;2023-04-01T08:51:43;94763.72;;;6.93;88.32
75521;BME280;64102;48.628;9.002;2023-04-01T08:57:04;94763.16;;;7.25;88.44
75521;BME280;64102;48.628;9.002;2023-04-01T08:59:47;94752.63;;;7.62;85.33
75521;BME280;64102;48.628;9.002;2023-04-01T09:02:21;94744.44;;;8.00;86.12
75521;BME280;64102;48.628;9.002;2023-04-01T09:16:24;94764.38;;;9.13;79.00
75521;BME280;64102;48.628;9.002;2023-04-01T09:22:37;94776.91;;;8.18;85.90
75521;BME280;64102;48.628;9.002;2023-04-01T09:27:57;94770.81;;;8.10;85.92
75521;BME280;64102;48.628;9.002;2023-04-01T09:30:57;94774.06;;;8.21;84.64
75521;BME280;64102;48.628;9.002;2023-04-01T09:37:17;94767.28;;;8.20;84.54
75521;BME280;64102;48.628;9.002;2023-04-01T09:59:49;94796.41;;;7.60;86.91
75521;BME280;64102;48.628;9.002;2023-04-01T10:33:19;94823.16;;;8.18;83.60
75521;BME280;64102;48.628;9.002;2023-04-01T10:39:29;94814.41;;;9.19;79.33
75521;BME280;64102;48.628;9.002;2023-04-01T10:51:00;94816.25;;;9.89;76.33
75521;BME280;64102;48.628;9.002;2023-04-01T11:38:18;94836.94;;;10.20;71.47
75521;BME280;64102;48.628;9.002;2023-04-01T11:43:34;94834.44;;;9.88;72.96
75521;BME280;64102;48.628;9.002;2023-04-01T11:49:25;94842.84;;;10.37;72.47
75521;BME280;64102;48.628;9.002;2023-04-01T11:52:04;94836.59;;;9.52;72.31
75521;BME280;64102;48.628;9.002;2023-04-01T12:03:10;94857.25;;;10.07;72.01
75521;BME280;64102;48.628;9.002;2023-04-01T12:06:02;94849.88;;;10.04;70.98
75521;BME280;64102;48.628;9.002;2023-04-01T12:14:03;94859.66;;;11.17;67.23
75521;BME280;64102;48.628;9.002;2023-04-01T12:16:47;94859.06;;;11.07;67.36
75521;BME280;64102;48.628;9.002;2023-04-01T12:19:43;94861.34;;;11.10;68.07
75521;BME280;64102;48.628;9.002;2023-04-01T12:25:05;94870.00;;;10.09;71.23
75521;BME280;64102;48.628;9.002;2023-04-01T12:27:42;94868.34;;;10.24;72.29
75521;BME280;64102;48.628;9.002;2023-04-01T12:46:40;94868.25;;;10.56;66.47
75521;BME280;64102;48.628;9.002;2023-04-01T12:49:17;94866.09;;;11.21;66.00
75521;BME280;64102;48.628;9.002;2023-04-01T12:57:26;94861.97;;;10.82;64.66
75521;BME280;64102;48.628;9.002;2023-04-01T13:18:01;94875.91;;;10.33;67.77
75521;BME280;64102;48.628;9.002;2023-04-01T13:25:51;94883.47;;;10.35;66.73
75521;BME280;64102;48.628;9.002;2023-04-01T13:28:32;94886.50;;;10.47;67.62
75521;BME280;64102;48.628;9.002;2023-04-01T13:31:14;94884.78;;;10.23;66.78
75521;BME280;64102;48.628;9.002;2023-04-01T13:34:03;94879.56;;;10.47;65.53
75521;BME280;64102;48.628;9.002;2023-04-01T13:36:57;94885.84;;;10.53;66.94
75521;BME280;64102;48.628;9.002;2023-04-01T13:39:34;94884.84;;;10.62;67.37
